• Join FlightAware (Why Join?)
  • Login
  • US Flag 
03:36PM EDT


 

Airport Tracker/Info


-or-


 

Live Flight TrackerFlight Track Log ✈ ASA463 ✈ 13-Jul-2013 ✈ KLAX - KSEA

Flight Track Log - Related Links

Times and Time Zones

All times are in EDT time to prevent confusion due to time zone crossing. See the ASA463 flight status page for this flight to view local times or setup timezone preferences in your user account.

Time Position Orientation Groundspeed Altitude Reporting Facility
EDT Latitude Longitude Course Direction KTS MPH feet Rate Location/Type
11:48PM 33.9333 -118.4667 338° Northwest 204 235 2,200  Level Southern California TRACON
11:49PM 33.9222 -118.5797 263° West 244 281 5,700 2,400 Climbing Los Angeles Center
11:50PM 33.9556 -118.6553 298° West 284 327 8,200 2,580 Climbing Los Angeles Center
11:51PM 34.0422 -118.6422 North 296 341 11,000 2,520 Climbing Los Angeles Center
11:52PM 34.1211 -118.6297 North 306 352 13,400 1,980 Climbing Los Angeles Center
11:53PM 34.4646 -118.6906 338° Northwest  Level FlightAware Approximate
11:53PM 34.2136 -118.6514 349° North 336 387 15,100  Level Los Angeles Center
11:54PM 34.3244 -118.6847 346° North 411 473 16,200 1,620 Climbing Los Angeles Center
11:55PM 34.4439 -118.7169 347° North 439 505 18,400 2,100 Climbing Los Angeles Center
11:56PM 34.5633 -118.7522 346° North 440 506 20,600 1,980 Climbing Los Angeles Center
11:57PM 34.7103 -118.7969 346° North 454 522 22,500 1,380 Climbing Los Angeles Center
11:59PM 34.8383 -118.8344 346° North 467 537 23,800 1,500 Climbing Los Angeles Center
12:00AM 35.0042 -118.8831 346° North 489 563 25,900 1,320 Climbing Los Angeles Center
12:01AM 35.1386 -118.9214 347° North 497 572 26,900 960 Climbing Los Angeles Center
12:02AM 35.3072 -118.9706 347° North 519 597 28,100 1,200 Climbing Los Angeles Center
12:03AM 35.4464 -119.0131 346° North 517 595 29,400 1,260 Climbing Los Angeles Center
12:04AM 35.5858 -119.0536 347° North 517 595 30,700 1,260 Climbing Los Angeles Center
12:05AM 35.7261 -119.0961 346° North 518 596 32,100 1,560 Climbing Los Angeles Center
12:06AM 35.8600 -119.1372 346° North 505 581 34,000 1,500 Climbing Los Angeles Center
12:07AM 35.9917 -119.1775 346° North 492 566 35,200 1,080 Climbing Los Angeles Center
12:08AM 36.1478 -119.2247 346° North 486 559 36,200 900 Climbing Los Angeles Center
12:09AM 36.2806 -119.2658 346° North 490 564 37,100 840 Climbing Los Angeles Center
12:10AM 36.4136 -119.3056 346° North 491 565 38,000 420 Climbing Los Angeles Center
12:11AM 36.5453 -119.3467 346° North 490 564 38,000  Level Los Angeles Center
12:12AM 36.6778 -119.3869 346° North 492 566 38,000  Level Los Angeles Center
12:14AM 36.8608 -119.4419 346° North 491 565 38,000  Level Oakland Center
12:15AM 36.9925 -119.4814 347° North 488 562 38,000  Level Oakland Center
12:16AM 37.1247 -119.5228 346° North 490 564 38,000  Level Oakland Center
12:17AM 37.2556 -119.5631 346° North 487 560 38,000  Level Oakland Center
12:18AM 37.4006 -119.6086 346° North 485 558 38,000  Level Oakland Center
12:19AM 37.5322 -119.6503 346° North 486 559 38,000  Level Oakland Center
12:20AM 37.6631 -119.6917 346° North 486 559 38,000  Level Oakland Center
12:21AM 37.7944 -119.7325 346° North 485 558 38,000  Level Oakland Center
12:22AM 37.9244 -119.7750 346° North 484 557 38,000  Level Oakland Center
12:23AM 38.0564 -119.8164 346° North 489 563 38,000  Level Oakland Center
12:24AM 38.1900 -119.8578 346° North 494 568 38,000  Level Oakland Center
12:25AM 38.3200 -119.9000 346° North 489 563 38,000  Level Oakland Center
12:26AM 38.4492 -119.9431 345° North 485 558 38,000  Level Oakland Center
12:27AM 38.5817 -119.9858 346° North 493 567 38,000  Level Oakland Center
12:28AM 38.7111 -120.0275 346° North 485 558 38,000  Level Oakland Center
12:29AM 38.8667 -120.0778 346° North 484 557 38,000  Level Oakland Center
12:30AM 38.9775 -120.1147 345° North 488 562 38,000  Level Oakland Center
12:31AM 39.1306 -120.1639 346° North 490 564 38,000  Level Oakland Center
12:32AM 39.2606 -120.2089 345° North 488 562 38,000  Level Oakland Center
12:33AM 39.3928 -120.2519 346° North 489 563 38,000  Level Oakland Center
12:34AM 39.5258 -120.2969 345° North 494 568 38,000  Level Oakland Center
12:35AM 39.6572 -120.3408 346° North 492 566 38,000  Level Oakland Center
12:36AM 39.7881 -120.3850 345° North 489 563 38,000  Level Oakland Center
12:37AM 39.9194 -120.4292 346° North 489 563 38,000  Level Oakland Center
12:38AM 40.0522 -120.4725 346° North 489 563 38,000  Level Oakland Center
12:39AM 40.1881 -120.5169 346° North 498 573 38,000  Level Oakland Center
12:40AM 40.3194 -120.5614 346° North 496 571 38,000  Level Oakland Center
12:41AM 40.4519 -120.6075 345° North 494 568 38,000  Level Oakland Center
12:41AM 40.5347 -120.6364 345° North 496 571 38,000  Level Seattle Center
12:42AM 40.6675 -120.6822 345° North 495 570 38,000  Level Seattle Center
12:43AM 40.7986 -120.7286 345° North 490 564 38,000  Level Seattle Center
12:44AM 40.9308 -120.7750 345° North 492 566 38,000  Level Seattle Center
12:45AM 41.0592 -120.8206 345° North 483 556 38,000  Level Seattle Center
12:46AM 41.1858 -120.8636 346° North 474 545 38,000  Level Seattle Center
12:47AM 41.3094 -120.9069 345° North 466 536 38,000  Level Seattle Center
12:48AM 41.4322 -120.9497 345° North 459 528 38,000  Level Seattle Center
12:49AM 41.5617 -120.9592 357° North 469 540 38,000  Level Seattle Center
12:50AM 41.6886 -120.9006 19° North 487 560 38,000  Level Seattle Center
12:51AM 41.7919 -120.7822 40° Northeast 499 574 38,000  Level Seattle Center
12:52AM 41.8767 -120.6394 51° Northeast 496 571 38,000  Level Seattle Center
12:54AM 42.0228 -120.5444 26° Northeast 495 570 38,000  Level Seattle Center
12:55AM 42.1514 -120.5583 355° North 471 542 38,000  Level Seattle Center
12:56AM 42.2711 -120.6236 338° Northwest 465 535 38,000  Level Seattle Center
12:57AM 42.3897 -120.6858 339° North 460 529 38,000  Level Seattle Center
12:58AM 42.5089 -120.7508 338° Northwest 463 533 38,000  Level Seattle Center
12:59AM 42.6269 -120.8133 339° North 459 528 38,000  Level Seattle Center
01:00AM 42.7442 -120.8767 338° Northwest 456 525 38,000  Level Seattle Center
01:01AM 42.8594 -120.9397 338° Northwest 451 519 38,000  Level Seattle Center
01:02AM 42.9758 -121.0028 338° Northwest 451 519 38,000  Level Seattle Center
01:03AM 43.0925 -121.0656 339° North 453 521 38,000  Level Seattle Center
01:04AM 43.2075 -121.1275 339° North 447 514 38,000  Level Seattle Center
01:05AM 43.3222 -121.1900 338° Northwest 446 513 38,000  Level Seattle Center
01:06AM 43.4378 -121.2539 338° Northwest 449 517 38,000  Level Seattle Center
01:07AM 43.5508 -121.3142 339° North 443 510 38,000  Level Seattle Center
01:08AM 43.6639 -121.3781 338° Northwest 441 507 38,000  Level Seattle Center
01:09AM 43.7781 -121.4467 337° Northwest 444 511 38,000  Level Seattle Center
01:10AM 43.9056 -121.5178 338° Northwest 444 511 38,000  Level Seattle Center
01:11AM 44.0161 -121.5806 338° Northwest 433 498 38,000  Level Seattle Center
01:12AM 44.1289 -121.6436 338° Northwest 435 501 38,000  Level Seattle Center
01:13AM 44.2428 -121.7092 338° Northwest 442 509 38,000  Level Seattle Center
01:14AM 44.3572 -121.7742 338° Northwest 444 511 38,000  Level Seattle Center
01:15AM 44.4711 -121.8389 338° Northwest 441 507 38,000  Level Seattle Center
01:16AM 44.5900 -121.9064 338° Northwest 441 507 38,000  Level Seattle Center
01:17AM 44.7019 -121.9711 338° Northwest 439 505 38,000  Level Seattle Center
01:18AM 44.8117 -122.0350 338° Northwest 430 495 38,000  Level Seattle Center
01:19AM 44.9175 -122.0986 337° Northwest 416 479 38,000  Level Seattle Center
01:20AM 45.0275 -122.1633 337° Northwest 426 490 38,000  Level Seattle Center
01:21AM 45.1308 -122.2244 337° Northwest 419 482 38,000  Level Seattle Center
01:22AM 45.2389 -122.2858 338° Northwest 416 479 38,000 -360 Level Seattle Center
01:23AM 45.3461 -122.3506 337° Northwest 420 483 37,300 -780 Descending Seattle Center
01:24AM 45.4531 -122.4147 337° Northwest 419 482 36,500 -900 Descending Seattle Center
01:25AM 45.5639 -122.4808 337° Northwest 425 489 35,600 -960 Descending Seattle Center
01:26AM 45.6767 -122.5508 337° Northwest 434 499 34,600 -1,680 Descending Seattle Center
01:27AM 45.7858 -122.6075 340° North 431 496 32,300 -2,340 Descending Seattle Center
01:28AM 45.8878 -122.6394 348° North 403 464 30,000 -2,100 Descending Seattle Center
01:29AM 45.9817 -122.6922 339° North 384 442 28,100 -1,920 Descending Seattle Center
01:30AM 46.0753 -122.7433 339° North 365 420 26,200 -1,920 Descending Seattle Center
01:31AM 46.1728 -122.8011 338° Northwest 369 425 24,300 -2,040 Descending Seattle Center
01:32AM 46.2781 -122.8625 338° Northwest 358 412 22,200 -1,800 Descending Seattle Center
01:33AM 46.3694 -122.9139 339° North 355 409 20,700 -1,860 Descending Seattle Center
01:34AM 46.4622 -122.8808 14° North 360 414 18,500 -1,980 Descending Seattle Center
01:35AM 46.5542 -122.8303 21° North 357 411 16,800 -1,740 Descending Seattle Center
01:36AM 46.6436 -122.7800 21° North 346 398 15,000 -1,920 Descending Seattle Center
01:37AM 46.7392 -122.7272 21° North 339 390 13,000 -1,860 Descending Seattle Center
01:38AM 46.8239 -122.6792 21° North 327 376 11,300 -1,440 Descending Seattle Center
01:39AM 46.8914 -122.6022 38° Northeast 303 349 10,200 -1,080 Descending Seattle Center
01:40AM 46.9503 -122.5242 42° Northeast 289 333 9,200 -1,140 Descending Seattle Center
01:41AM 47.0092 -122.4475 42° Northeast 284 327 8,000 -1,200 Descending Seattle Center
01:42AM 47.0728 -122.3917 31° Northeast 266 306 6,800 -900 Descending Seattle Center
01:43AM 47.1358 -122.3431 28° Northeast 257 296 6,300 -720 Descending Seattle Center
01:44AM 47.2017 -122.3275 North 206 237 5,300 -960 Descending Seattle Center
01:45AM 47.2489 -122.3231 North 195 224 4,400 -1,080 Descending Seattle Center
01:46AM 47.2969 -122.3200 North 174 200 3,300 -1,080 Descending Seattle Center
01:47AM 47.3389 -122.3189 North 143 165 2,300 -900 Descending Seattle Center
01:48AM 47.3769 -122.3183 North 138 159 1,600 -720 Descending Seattle Center
01:49AM 47.4083 -122.3186 360° North 135 155 1,000 -600 Descending Seattle Center
01:50AM 47.4453 -122.3186 360° North 133 153 400 -540 Descending Seattle Center
01:52AM 47.4499 -122.3118 45° Northeast  Level Estimated